This is the latest recevied weather packets stored in our database for station/object DG0PX-12. If no packets are shown the sender has not sent any weather packets the latest 10 day(s).
| Time | Temp. | Humidity | Pressure | Rain* | Wind** | Luminosity | Snow |
|---|---|---|---|---|---|---|---|
| 1787998488 | 30.56° C | 30% | 951.8 hPa | - | - | - | - |
| 1787997588 | 28.33° C | 34% | 951.7 hPa | - | - | - | - |
| 1787996688 | 28.89° C | 33% | 951.9 hPa | - | - | - | - |
| 1787995788 | 27.78° C | 36% | 951.7 hPa | - | - | - | - |
| 1787994888 | 27.78° C | 35% | 951.9 hPa | - | - | - | - |
| 1787993988 | 26.67° C | 39% | 951.7 hPa | - | - | - | - |
| 1787993088 | 26.67° C | 37% | 951.8 hPa | - | - | - | - |
| 1787992188 | 27.78° C | 37% | 951.9 hPa | - | - | - | - |
| 1787991288 | 28.33° C | 35% | 952 hPa | - | - | - | - |
| 1787990388 | 27.78° C | 36% | 952 hPa | - | - | - | - |
| 1787989488 | 27.22° C | 40% | 951.6 hPa | - | - | - | - |
| 1787988588 | 27.78° C | 42% | 951.6 hPa | - | - | - | - |
| 1787987687 | 25.56° C | 49% | 951.4 hPa | - | - | - | - |
| 1787986787 | 26.11° C | 47% | 951.5 hPa | - | - | - | - |
| 1787985887 | 25° C | 52% | 951.4 hPa | - | - | - | - |
| 1787984987 | 25.56° C | 48% | 951.4 hPa | - | - | - | - |
| 1787984087 | 23.33° C | 55% | 951.2 hPa | - | - | - | - |
| 1787983187 | 22.78° C | 57% | 951.1 hPa | - | - | - | - |
| 1787982287 | 22.78° C | 55% | 951 hPa | - | - | - | - |
| 1787981387 | 21.67° C | 58% | 950.8 hPa | - | - | - | - |
| 1787980487 | 21.67° C | 59% | 950.7 hPa | - | - | - | - |
| 1787979587 | 21.11° C | 60% | 950.7 hPa | - | - | - | - |
| 1787978687 | 21.11° C | 61% | 950.4 hPa | - | - | - | - |
| 1787977787 | 21.67° C | 58% | 950.5 hPa | - | - | - | - |
| 1787976887 | 22.22° C | 55% | 950.7 hPa | - | - | - | - |
* Rain since midnight (hover to see other rain measurements)
** Current wind speed in m/s (hover to see current wind gust speed)